COMPANY RECORD · AUSTIN, TX
Ironwood Plumbing — permit history in Austin, TX
Ironwood Plumbing appears on 121 Austin permit records from 2022 through 2026, all of them plumbing.
Permit categories
| Category | Permits | Share |
|---|---|---|
| Plumbing | 121 | 100% |
Activity by year
| Year | Permits issued |
|---|---|
| 2022 | 1 |
| 2023 | 36 |
| 2024 | 83 |
| 2026 | 1 |
Busiest year on record: 2024, with 83 permits. One project can account for several filings, so read this as filing activity rather than workload.
Named on the same permit
| Name in source | Linked permits | Last seen |
|---|---|---|
| Jamail & Smith Construction | 8 | 2024-03-06 |
| Desert Construction LLC | 5 | 2023-10-04 |
| Ark General Construction | 1 | 2024-04-23 |
| Kinetic Builders Corp | 1 | 2024-04-18 |
| Rsvc Company | 1 | 2024-01-23 |
| Select Building Systems, Inc. DBA Sbs Construction *Main | 1 | 2024-04-18 |
6 companies are named alongside Ironwood Plumbing on the same Austin permit. A shared permit is a documented co-appearance, not proof of a current contract. Names appear as the authority published them.
Where they worked
| Address in source | Most recent permit |
|---|---|
| 900 S LAMAR BLVD | 2026-01-06 |
| 512 POWELL CIR | 2024-12-31 |
| 1208 KAREN AVE | 2024-12-26 |
| 3309 LARRY LN | 2024-12-02 |
| 1822 TREADWELL ST | 2024-11-25 |
| 2805 MOUNTAIN LAUREL DR | 2024-11-25 |
| 2105 ANN ARBOR AVE | 2024-11-19 |
| 2004 ALGUNO RD | 2024-11-19 |
| 1417 KRAMER LN | 2024-11-18 |
| 802 MAUDE ST | 2024-10-09 |
| 3702 TOWER VIEW CT | 2024-10-02 |
| 1213 KAREN AVE | 2024-09-27 |
| 1304 ANGELINA ST | 2024-09-27 |
| 1609 CANTERBURY ST | 2024-09-27 |
112 distinct addresses on record; the 14 most recent are shown. Addresses appear as the authority published them. A permit is a filing at an address, not a completed job there.
Permits on record
121 permits; open the 50 most recent
| Permit | Issued | Category | Address in source | Scope as filed | Declared value |
|---|---|---|---|---|---|
| 2026-000534 PP | 2026-01-06 | Plumbing | 900 S LAMAR BLVD | ||
| 2024-167666 PP | 2024-12-31 | Plumbing | 512 POWELL CIR | ||
| 2024-151354 PP | 2024-12-26 | Plumbing | 1208 KAREN AVE | ||
| 2024-151430 PP | 2024-12-02 | Plumbing | 3309 LARRY LN | ||
| 2022-054198 PP | 2024-11-25 | Plumbing | 1822 TREADWELL ST | ||
| 2024-106738 PP | 2024-11-25 | Plumbing | 2805 MOUNTAIN LAUREL DR | ||
| 2024-151884 PP | 2024-11-19 | Plumbing | 2105 ANN ARBOR AVE | ||
| 2024-153536 PP | 2024-11-19 | Plumbing | 2004 ALGUNO RD | ||
| 18-012052 PP | 2024-11-18 | Plumbing | 1417 KRAMER LN | ||
| 2024-135062 PP | 2024-10-09 | Plumbing | 802 MAUDE ST | ||
| 2024-133459 PP | 2024-10-02 | Plumbing | 3702 TOWER VIEW CT | ||
| 2024-130618 PP | 2024-09-27 | Plumbing | 1213 KAREN AVE | ||
| 2024-131344 PP | 2024-09-27 | Plumbing | 1304 ANGELINA ST | ||
| 2024-131437 PP | 2024-09-27 | Plumbing | 1609 CANTERBURY ST | ||
| 2024-130430 PP | 2024-09-27 | Plumbing | 1901 W ST JOHNS AVE | ||
| 2024-128009 PP | 2024-09-24 | Plumbing | 3702 TOWER VIEW CT BLDG 2 | ||
| 2024-127481 PP | 2024-09-20 | Plumbing | 4302 S US 183 HWY SB | ||
| 2024-109234 PP | 2024-09-19 | Plumbing | 4801 SARA DR | ||
| 2024-126653 PP | 2024-09-18 | Plumbing | 4508 EDGEMONT DR | ||
| 2024-125196 PP | 2024-09-18 | Plumbing | 5104 STONE GATE DR | ||
| 2024-125883 PP | 2024-09-17 | Plumbing | 917 SHADY LN | ||
| 2024-123598 PP | 2024-09-12 | Plumbing | 806 VALDEZ ST | ||
| 2024-123614 PP | 2024-09-11 | Plumbing | 3701 STEVENSON AVE | ||
| 2023-161986 PP | 2024-08-27 | Plumbing | 2315 BOWMAN AVE | ||
| 2024-082010 PP | 2024-08-13 | Plumbing | 1703 MADISON AVE | ||
| 2024-083563 PP | 2024-08-12 | Plumbing | 1708 ALGUNO RD | ||
| 2024-089955 PP | 2024-07-28 | Plumbing | 4707 DEPEW AVE | ||
| 2024-089945 PP | 2024-07-28 | Plumbing | 4709 DEPEW AVE | ||
| 2024-061338 PP | 2024-07-09 | Plumbing | 2111 ANN ARBOR AVE | ||
| 2024-080930 PP | 2024-06-27 | Plumbing | 1404 GARDEN ST | ||
| 2024-075785 PP | 2024-06-25 | Plumbing | 613 WILMES DR | ||
| 2024-079582 PP | 2024-06-25 | Plumbing | 10150 E US 290 HWY SVRD WB | ||
| 2024-077691 PP | 2024-06-20 | Plumbing | 6908 PRISCILLA DR | ||
| 2024-069419 PP | 2024-06-13 | Plumbing | 4711 DEPEW AVE | ||
| 2024-062466 PP | 2024-06-11 | Plumbing | 5503 AVENUE H | ||
| 2024-025416 PP | 2024-06-05 | Plumbing | 1001 JEWELL ST | ||
| 2024-065659 PP | 2024-05-30 | Plumbing | 2708 BOWMAN AVE | ||
| 2023-160643 PP | 2024-05-29 | Plumbing | 4414 S 1ST ST | ||
| 2023-160646 PP | 2024-05-29 | Plumbing | 4416 S 1ST ST | ||
| 2024-045574 PP | 2024-05-24 | Plumbing | 2013 HOLLAND AVE | ||
| 2024-049706 PP | 2024-05-13 | Plumbing | 4402 GARNETT ST | ||
| 2023-128993 PP | 2024-05-07 | Plumbing | 404 W CROSLIN ST | ||
| 2024-053683 PP | 2024-05-07 | Plumbing | 1705 E 13TH ST | ||
| 2024-045922 PP | 2024-05-06 | Plumbing | 205 PECAN DR | ||
| 2024-047185 PP | 2024-05-06 | Plumbing | 906 MANSELL AVE | ||
| 2024-053557 PP | 2024-05-06 | Plumbing | 5507 CLAY AVE | ||
| 2024-053405 PP | 2024-05-06 | Plumbing | 5704 SUSIE CT | ||
| 2024-005922 PP | 2024-04-29 | Plumbing | 505 PHILCO DR | ||
| 2024-042576 PP | 2024-04-25 | Plumbing | 7301 N LAMAR BLVD | ||
| 2024-040321 PP | 2024-04-25 | Plumbing | 7209 N LAMAR BLVD |
Fields appear as the issuing authority published them, including spelling and blanks. Scope text is the applicant's description of intended work, not an inspection finding.
Source and limits
Public Austin permit records through 2026, counted by distinct permit number. This is a historical filing record: it cannot show current backlog, pricing, crew availability, licensing or insurance, and a quiet period may only mean work was filed elsewhere. Confirm anything commercial with the company and with the issuing authority before acting. How we build these records, and what we withhold →
